Time,TemperatureF,DewpointF,PressureIn,WindDirection,WindDirectionDegrees,WindSpeedMPH,WindSpeedGustMPH,Humidity,HourlyPrecipIn,Conditions,Clouds,dailyrainin,SoftwareType,DateUTC
2013-04-20 00:01:00,46.2,38.4,29.99,WSW,253,0.0,0.0,74,0.00,,,0.00,WeatherCatV1.11B39,2013-04-20 04:01:00,
2013-04-20 00:06:00,46.1,38.6,29.99,WSW,253,0.0,0.0,75,0.00,,,0.00,WeatherCatV1.11B39,2013-04-20 04:06:00,
2013-04-20 00:11:00,46.1,38.3,29.99,WSW,256,0.0,0.0,74,0.00,,,0.00,WeatherCatV1.11B39,2013-04-20 04:11:00,
2013-04-20 00:16:00,46.1,38.3,30.00,WSW,257,1.0,1.0,74,0.00,,,0.00,WeatherCatV1.11B39,2013-04-20 04:16:00,
2013-04-20 00:21:00,45.8,37.6,30.00,WSW,246,2.0,3.0,73,0.00,,,0.00,WeatherCatV1.11B39,2013-04-20 04:21:00,
2013-04-20 00:26:00,45.7,38.2,30.00,WSW,246,0.0,0.0,75,0.00,,,0.00,WeatherCatV1.11B39,2013-04-20 04:26:00,
2013-04-20 00:31:00,45.5,38.0,30.00,SSW,195,0.0,1.0,75,0.00,,,0.00,WeatherCatV1.11B39,2013-04-20 04:31:00,
2013-04-20 00:36:00,45.2,37.4,30.00,West,271,0.0,0.0,74,0.00,,,0.00,WeatherCatV1.11B39,2013-04-20 04:36:00,
2013-04-20 00:41:00,45.2,37.4,30.00,West,271,0.0,0.0,74,0.00,,,0.00,WeatherCatV1.11B39,2013-04-20 04:41:00,
2013-04-20 00:46:00,45.2,38.1,30.00,WSW,254,0.0,0.0,76,0.00,,,0.00,WeatherCatV1.11B39,2013-04-20 04:46:00,
2013-04-20 00:51:00,45.2,37.4,30.00,WSW,254,0.0,0.0,74,0.00,,,0.00,WeatherCatV1.11B39,2013-04-20 04:51:00,
2013-04-20 00:56:00,45.2,38.1,30.00,WSW,254,0.0,0.0,76,0.00,,,0.00,WeatherCatV1.11B39,2013-04-20 04:56:00,
2013-04-20 01:01:00,44.8,37.0,30.00,WSW,254,0.0,0.0,74,0.00,,,0.00,WeatherCatV1.11B39,2013-04-20 05:01:00,
2013-04-20 01:06:00,44.8,37.0,30.00,WSW,254,0.0,0.0,74,0.00,,,0.00,WeatherCatV1.11B39,2013-04-20 05:06:00,
2013-04-20 01:11:00,44.5,36.7,30.00,WSW,254,0.0,0.0,74,0.00,,,0.00,WeatherCatV1.11B39,2013-04-20 05:11:00,
2013-04-20 01:16:00,44.2,36.8,30.01,WSW,254,0.0,0.0,75,0.00,,,0.00,WeatherCatV1.11B39,2013-04-20 05:16:00,
2013-04-20 01:21:00,44.1,36.7,30.01,WSW,254,0.0,0.0,75,0.00,,,0.00,WeatherCatV1.11B39,2013-04-20 05:21:00,
2013-04-20 01:26:00,44.1,36.4,30.01,West,261,0.0,0.0,74,0.00,,,0.00,WeatherCatV1.11B39,2013-04-20 05:26:00,
2013-04-20 01:31:00,44.1,36.4,30.01,West,271,0.0,5.0,74,0.00,,,0.00,WeatherCatV1.11B39,2013-04-20 05:31:00,
2013-04-20 01:36:00,44.1,36.0,30.01,West,271,0.0,0.0,73,0.00,,,0.00,WeatherCatV1.11B39,2013-04-20 05:36:00,
2013-04-20 01:41:00,44.1,35.7,30.01,West,271,0.0,0.0,72,0.00,,,0.00,WeatherCatV1.11B39,2013-04-20 05:41:00,
2013-04-20 01:46:00,44.1,35.7,30.01,West,271,0.0,0.0,72,0.00,,,0.00,WeatherCatV1.11B39,2013-04-20 05:46:00,
2013-04-20 01:51:00,44.1,35.3,30.01,West,271,0.0,0.0,71,0.00,,,0.00,WeatherCatV1.11B39,2013-04-20 05:51:00,
2013-04-20 01:56:00,43.9,35.5,30.01,West,271,0.0,0.0,72,0.00,,,0.00,WeatherCatV1.11B39,2013-04-20 05:56:00,
2013-04-20 02:01:00,43.9,35.5,30.01,NW,309,0.0,2.0,72,0.00,,,0.00,WeatherCatV1.11B39,2013-04-20 06:01:00,
2013-04-20 02:06:00,44.1,35.7,30.01,NW,309,0.0,0.0,72,0.00,,,0.00,WeatherCatV1.11B39,2013-04-20 06:06:00,
2013-04-20 02:11:00,43.9,35.1,30.01,NW,313,0.0,0.0,71,0.00,,,0.00,WeatherCatV1.11B39,2013-04-20 06:11:00,
2013-04-20 02:16:00,43.8,35.4,30.02,NW,306,0.0,0.0,72,0.00,,,0.00,WeatherCatV1.11B39,2013-04-20 06:16:00,
2013-04-20 02:21:00,43.6,35.2,30.02,NW,306,0.0,0.0,72,0.00,,,0.00,WeatherCatV1.11B39,2013-04-20 06:21:00,
2013-04-20 02:26:00,43.5,34.7,30.02,NW,308,0.0,2.0,71,0.00,,,0.00,WeatherCatV1.11B39,2013-04-20 06:26:00,
2013-04-20 02:31:00,43.6,34.5,30.01,North,0,0.0,0.0,70,0.00,,,0.00,WeatherCatV1.11B39,2013-04-20 06:31:00,
2013-04-20 02:36:00,43.8,34.7,30.01,North,0,0.0,0.0,70,0.00,,,0.00,WeatherCatV1.11B39,2013-04-20 06:36:00,
2013-04-20 02:41:00,43.8,33.9,30.01,North,359,0.0,0.0,68,0.00,,,0.00,WeatherCatV1.11B39,2013-04-20 06:41:00,
2013-04-20 02:46:00,43.8,34.3,30.01,WNW,284,0.0,0.0,69,0.00,,,0.00,WeatherCatV1.11B39,2013-04-20 06:46:00,
2013-04-20 02:51:00,43.6,34.5,30.01,WNW,284,0.0,0.0,70,0.00,,,0.00,WeatherCatV1.11B39,2013-04-20 06:51:00,
2013-04-20 02:56:00,43.5,35.1,30.01,WNW,284,0.0,0.0,72,0.00,,,0.00,WeatherCatV1.11B39,2013-04-20 06:56:00,
2013-04-20 03:01:00,43.3,34.9,30.02,WNW,284,0.0,0.0,72,0.00,,,0.00,WeatherCatV1.11B39,2013-04-20 07:01:00,
2013-04-20 03:06:00,43.3,34.9,30.02,NNW,337,0.0,1.0,72,0.00,,,0.00,WeatherCatV1.11B39,2013-04-20 07:06:00,
2013-04-20 03:11:00,43.2,34.8,30.02,NNW,337,0.0,0.0,72,0.00,,,0.00,WeatherCatV1.11B39,2013-04-20 07:11:00,
2013-04-20 03:16:00,42.9,34.5,30.02,NNW,337,0.0,0.0,72,0.00,,,0.00,WeatherCatV1.11B39,2013-04-20 07:16:00,
2013-04-20 03:21:00,42.8,33.7,30.02,NNW,337,0.0,0.0,70,0.00,,,0.00,WeatherCatV1.11B39,2013-04-20 07:21:00,
2013-04-20 03:26:00,42.6,33.5,30.02,NNW,337,0.0,0.0,70,0.00,,,0.00,WeatherCatV1.11B39,2013-04-20 07:26:00,
2013-04-20 03:31:00,42.5,33.4,30.02,NNW,337,0.0,0.0,70,0.00,,,0.00,WeatherCatV1.11B39,2013-04-20 07:31:00,
2013-04-20 03:36:00,42.3,33.6,30.02,NNW,337,0.0,0.0,71,0.00,,,0.00,WeatherCatV1.11B39,2013-04-20 07:36:00,
2013-04-20 03:41:00,42.3,33.6,30.02,North,352,0.0,0.0,71,0.00,,,0.00,WeatherCatV1.11B39,2013-04-20 07:41:00,
2013-04-20 03:46:00,42.6,33.2,30.03,West,268,0.0,6.0,69,0.00,,,0.00,WeatherCatV1.11B39,2013-04-20 07:46:00,
2013-04-20 03:51:00,42.6,33.2,30.03,WNW,282,0.0,8.0,69,0.00,,,0.00,WeatherCatV1.11B39,2013-04-20 07:51:00,
2013-04-20 03:56:00,42.6,32.8,30.03,West,272,0.0,5.0,68,0.00,,,0.00,WeatherCatV1.11B39,2013-04-20 07:56:00,
2013-04-20 04:01:00,42.8,31.5,30.03,NW,312,0.0,8.0,64,0.00,,,0.00,WeatherCatV1.11B39,2013-04-20 08:01:00,
2013-04-20 04:06:00,42.8,31.5,30.03,North,359,0.0,3.0,64,0.00,,,0.00,WeatherCatV1.11B39,2013-04-20 08:06:00,
2013-04-20 04:11:00,42.9,32.0,30.03,NW,316,0.0,1.0,65,0.00,,,0.00,WeatherCatV1.11B39,2013-04-20 08:11:00,
2013-04-20 04:16:00,42.8,31.5,30.03,North,353,0.0,10.0,64,0.00,,,0.00,WeatherCatV1.11B39,2013-04-20 08:16:00,
2013-04-20 04:21:00,42.8,31.5,30.03,North,359,0.0,2.0,64,0.00,,,0.00,WeatherCatV1.11B39,2013-04-20 08:21:00,
2013-04-20 04:26:00,42.8,30.7,30.03,North,359,0.0,0.0,62,0.00,,,0.00,WeatherCatV1.11B39,2013-04-20 08:26:00,
2013-04-20 04:31:00,42.6,30.9,30.04,North,0,0.0,0.0,63,0.00,,,0.00,WeatherCatV1.11B39,2013-04-20 08:31:00,
2013-04-20 04:36:00,42.3,30.6,30.04,SW,216,0.0,0.0,63,0.00,,,0.00,WeatherCatV1.11B39,2013-04-20 08:36:00,
2013-04-20 04:41:00,42.2,30.9,30.04,SW,227,0.0,0.0,64,0.00,,,0.00,WeatherCatV1.11B39,2013-04-20 08:41:00,
2013-04-20 04:46:00,41.9,30.6,30.04,SW,227,0.0,0.0,64,0.00,,,0.00,WeatherCatV1.11B39,2013-04-20 08:46:00,
2013-04-20 04:51:00,41.6,30.7,30.04,SW,227,0.0,0.0,65,0.00,,,0.00,WeatherCatV1.11B39,2013-04-20 08:51:00,
2013-04-20 04:56:00,41.2,30.0,30.04,SW,227,0.0,0.0,64,0.00,,,0.00,WeatherCatV1.11B39,2013-04-20 08:56:00,
2013-04-20 05:01:00,41.1,30.2,30.05,SW,227,0.0,0.0,65,0.00,,,0.00,WeatherCatV1.11B39,2013-04-20 09:01:00,
2013-04-20 05:06:00,40.9,30.1,30.05,SW,227,0.0,0.0,65,0.00,,,0.00,WeatherCatV1.11B39,2013-04-20 09:06:00,
2013-04-20 05:11:00,40.8,30.0,30.05,SW,227,0.0,0.0,65,0.00,,,0.00,WeatherCatV1.11B39,2013-04-20 09:11:00,
2013-04-20 05:16:00,40.8,30.0,30.06,SW,230,0.0,0.0,65,0.00,,,0.00,WeatherCatV1.11B39,2013-04-20 09:16:00,
2013-04-20 05:21:00,40.8,30.0,30.06,SW,230,0.0,0.0,65,0.00,,,0.00,WeatherCatV1.11B39,2013-04-20 09:21:00,
2013-04-20 05:26:00,40.6,29.8,30.06,SW,230,0.0,0.0,65,0.00,,,0.00,WeatherCatV1.11B39,2013-04-20 09:26:00,
2013-04-20 05:31:00,40.5,29.3,30.06,SW,230,0.0,0.0,64,0.00,,,0.00,WeatherCatV1.11B39,2013-04-20 09:31:00,
2013-04-20 05:36:00,40.3,29.5,30.06,SW,230,0.0,0.0,65,0.00,,,0.00,WeatherCatV1.11B39,2013-04-20 09:36:00,
2013-04-20 05:41:00,40.3,28.7,30.06,SW,230,0.0,0.0,63,0.00,,,0.00,WeatherCatV1.11B39,2013-04-20 09:41:00,
2013-04-20 05:46:00,40.3,28.3,30.07,SW,230,0.0,0.0,62,0.00,,,0.00,WeatherCatV1.11B39,2013-04-20 09:46:00,
2013-04-20 05:51:00,40.3,28.7,30.07,SW,230,0.0,0.0,63,0.00,,,0.00,WeatherCatV1.11B39,2013-04-20 09:51:00,
2013-04-20 05:56:00,40.3,28.7,30.07,SW,230,0.0,0.0,63,0.00,,,0.00,WeatherCatV1.11B39,2013-04-20 09:56:00,
2013-04-20 06:01:00,40.2,29.0,30.08,SW,230,0.0,0.0,64,0.00,,,0.00,WeatherCatV1.11B39,2013-04-20 10:01:00,
2013-04-20 06:06:00,40.1,28.5,30.08,SW,230,0.0,0.0,63,0.00,,,0.00,WeatherCatV1.11B39,2013-04-20 10:06:00,
2013-04-20 06:11:00,40.1,28.9,30.08,SW,230,0.0,0.0,64,0.00,,,0.00,WeatherCatV1.11B39,2013-04-20 10:11:00,
2013-04-20 06:16:00,39.9,28.7,30.08,SW,230,0.0,0.0,64,0.00,,,0.00,WeatherCatV1.11B39,2013-04-20 10:16:00,
2013-04-20 06:21:00,39.9,29.5,30.08,SW,230,0.0,0.0,66,0.00,,,0.00,WeatherCatV1.11B39,2013-04-20 10:21:00,
2013-04-20 06:26:00,39.9,28.7,30.08,SW,230,0.0,0.0,64,0.00,,,0.00,WeatherCatV1.11B39,2013-04-20 10:26:00,
2013-04-20 06:31:00,39.9,29.1,30.09,SW,230,0.0,0.0,65,0.00,,,0.00,WeatherCatV1.11B39,2013-04-20 10:31:00,
2013-04-20 06:36:00,39.9,28.3,30.09,SW,230,0.0,0.0,63,0.00,,,0.00,WeatherCatV1.11B39,2013-04-20 10:36:00,
2013-04-20 06:41:00,39.9,28.3,30.09,SW,230,0.0,0.0,63,0.00,,,0.00,WeatherCatV1.11B39,2013-04-20 10:41:00,
2013-04-20 06:46:00,40.1,29.3,30.10,SW,233,0.0,0.0,65,0.00,,,0.01,WeatherCatV1.11B39,2013-04-20 10:46:00,
2013-04-20 06:51:00,40.1,28.9,30.10,SW,233,0.0,0.0,64,0.00,,,0.01,WeatherCatV1.11B39,2013-04-20 10:51:00,
2013-04-20 06:56:00,40.2,28.6,30.10,WSW,257,0.0,0.0,63,0.00,,,0.01,WeatherCatV1.11B39,2013-04-20 10:56:00,
2013-04-20 07:01:00,40.2,28.2,30.10,WSW,257,0.0,0.0,62,0.00,,,0.01,WeatherCatV1.11B39,2013-04-20 11:01:00,
2013-04-20 07:06:00,40.2,29.0,30.10,WSW,257,0.0,0.0,64,0.00,,,0.01,WeatherCatV1.11B39,2013-04-20 11:06:00,
2013-04-20 07:11:00,40.2,28.2,30.10,WSW,257,0.0,0.0,62,0.00,,,0.01,WeatherCatV1.11B39,2013-04-20 11:11:00,
2013-04-20 07:16:00,40.2,29.0,30.12,WSW,257,0.0,0.0,64,0.00,,,0.01,WeatherCatV1.11B39,2013-04-20 11:16:00,
2013-04-20 07:21:00,40.3,28.7,30.12,WSW,257,0.0,0.0,63,0.00,,,0.01,WeatherCatV1.11B39,2013-04-20 11:21:00,
2013-04-20 07:26:00,40.8,29.2,30.12,WSW,257,0.0,0.0,63,0.00,,,0.01,WeatherCatV1.11B39,2013-04-20 11:26:00,
2013-04-20 07:31:00,41.1,29.1,30.12,WSW,257,0.0,0.0,62,0.00,,,0.01,WeatherCatV1.11B39,2013-04-20 11:31:00,
2013-04-20 07:36:00,41.6,30.3,30.12,WSW,257,0.0,0.0,64,0.00,,,0.01,WeatherCatV1.11B39,2013-04-20 11:36:00,
2013-04-20 07:41:00,42.1,30.0,30.12,WSW,257,0.0,0.0,62,0.00,,,0.01,WeatherCatV1.11B39,2013-04-20 11:41:00,
2013-04-20 07:46:00,42.3,30.2,30.13,WSW,257,0.0,0.0,62,0.00,,,0.01,WeatherCatV1.11B39,2013-04-20 11:46:00,
2013-04-20 07:51:00,42.8,30.7,30.13,WSW,257,0.0,0.0,62,0.00,,,0.01,WeatherCatV1.11B39,2013-04-20 11:51:00,
2013-04-20 07:56:00,43.1,31.0,30.13,WSW,257,1.0,1.0,62,0.00,,,0.01,WeatherCatV1.11B39,2013-04-20 11:56:00,
2013-04-20 08:01:00,43.3,29.5,30.14,WSW,257,0.0,0.0,58,0.00,,,0.01,WeatherCatV1.11B39,2013-04-20 12:01:00,
2013-04-20 08:06:00,43.8,30.4,30.14,West,261,1.0,1.0,59,0.00,,,0.01,WeatherCatV1.11B39,2013-04-20 12:06:00,
2013-04-20 08:11:00,44.5,30.7,30.14,West,261,0.0,0.0,58,0.00,,,0.01,WeatherCatV1.11B39,2013-04-20 12:11:00,
2013-04-20 08:16:00,44.9,30.2,30.15,West,261,0.0,0.0,56,0.00,,,0.01,WeatherCatV1.11B39,2013-04-20 12:16:00,
2013-04-20 08:21:00,45.5,30.3,30.15,West,265,0.0,1.0,55,0.00,,,0.01,WeatherCatV1.11B39,2013-04-20 12:21:00,
2013-04-20 08:26:00,45.8,30.6,30.15,NW,306,0.0,1.0,55,0.00,,,0.01,WeatherCatV1.11B39,2013-04-20 12:26:00,
2013-04-20 08:31:00,46.2,29.6,30.15,NNW,333,0.0,3.0,52,0.00,,,0.01,WeatherCatV1.11B39,2013-04-20 12:31:00,
2013-04-20 08:36:00,46.2,28.6,30.15,North,356,3.0,5.0,50,0.00,,,0.01,WeatherCatV1.11B39,2013-04-20 12:36:00,
2013-04-20 08:41:00,46.5,28.4,30.15,North,354,0.0,2.0,49,0.00,,,0.01,WeatherCatV1.11B39,2013-04-20 12:41:00,
2013-04-20 08:46:00,46.8,29.2,30.15,North,356,3.0,4.0,50,0.00,,,0.01,WeatherCatV1.11B39,2013-04-20 12:46:00,
2013-04-20 08:51:00,47.0,27.8,30.15,North,353,0.0,5.0,47,0.00,,,0.01,WeatherCatV1.11B39,2013-04-20 12:51:00,
2013-04-20 08:56:00,47.4,28.2,30.15,North,359,1.0,3.0,47,0.00,,,0.01,WeatherCatV1.11B39,2013-04-20 12:56:00,
2013-04-20 09:01:00,47.6,27.3,30.16,NNE,30,1.0,3.0,45,0.00,,,0.01,WeatherCatV1.11B39,2013-04-20 13:01:00,
2013-04-20 09:06:00,47.9,27.6,30.16,North,0,5.0,8.0,45,0.00,,,0.01,WeatherCatV1.11B39,2013-04-20 13:06:00,
2013-04-20 09:11:00,47.9,28.1,30.16,North,7,2.0,5.0,46,0.00,,,0.01,WeatherCatV1.11B39,2013-04-20 13:11:00,
2013-04-20 09:16:00,48.0,27.1,30.16,North,1,0.0,2.0,44,0.00,,,0.01,WeatherCatV1.11B39,2013-04-20 13:16:00,
2013-04-20 09:21:00,48.0,27.1,30.16,North,353,0.0,1.0,44,0.00,,,0.01,WeatherCatV1.11B39,2013-04-20 13:21:00,
2013-04-20 09:26:00,48.5,29.2,30.16,NW,315,0.0,7.0,47,0.00,,,0.01,WeatherCatV1.11B39,2013-04-20 13:26:00,
2013-04-20 09:31:00,48.5,28.1,30.17,North,353,0.0,0.0,45,0.00,,,0.01,WeatherCatV1.11B39,2013-04-20 13:31:00,
2013-04-20 09:36:00,49.4,27.3,30.17,North,4,7.0,7.0,42,0.00,,,0.01,WeatherCatV1.11B39,2013-04-20 13:36:00,
2013-04-20 09:41:00,49.2,27.1,30.17,NNW,333,5.0,10.0,42,0.00,,,0.01,WeatherCatV1.11B39,2013-04-20 13:41:00,
2013-04-20 09:46:00,48.9,26.8,30.17,NW,326,0.0,3.0,42,0.00,,,0.01,WeatherCatV1.11B39,2013-04-20 13:46:00,
2013-04-20 09:51:00,49.1,25.8,30.17,NNE,27,2.0,5.0,40,0.00,,,0.01,WeatherCatV1.11B39,2013-04-20 13:51:00,
2013-04-20 09:56:00,49.2,26.5,30.17,NNE,17,8.0,8.0,41,0.00,,,0.01,WeatherCatV1.11B39,2013-04-20 13:56:00,
2013-04-20 10:01:00,49.2,27.7,30.17,NE,37,8.0,10.0,43,0.00,,,0.01,WeatherCatV1.11B39,2013-04-20 14:01:00,
2013-04-20 10:06:00,49.5,26.2,30.17,North,6,7.0,7.0,40,0.00,,,0.01,WeatherCatV1.11B39,2013-04-20 14:06:00,
2013-04-20 10:11:00,49.5,27.4,30.17,North,0,6.0,7.0,42,0.00,,,0.01,WeatherCatV1.11B39,2013-04-20 14:11:00,
2013-04-20 10:16:00,49.5,24.3,30.17,North,0,3.0,6.0,37,0.00,,,0.01,WeatherCatV1.11B39,2013-04-20 14:16:00,
2013-04-20 10:21:00,50.1,26.1,30.17,North,353,6.0,7.0,39,0.00,,,0.01,WeatherCatV1.11B39,2013-04-20 14:21:00,
2013-04-20 10:26:00,50.2,24.9,30.17,NNW,330,5.0,8.0,37,0.00,,,0.01,WeatherCatV1.11B39,2013-04-20 14:26:00,
2013-04-20 10:31:00,50.2,26.2,30.17,NW,309,0.0,6.0,39,0.00,,,0.01,WeatherCatV1.11B39,2013-04-20 14:31:00,
2013-04-20 10:36:00,50.2,25.6,30.17,NNE,24,1.0,7.0,38,0.00,,,0.01,WeatherCatV1.11B39,2013-04-20 14:36:00,
2013-04-20 10:41:00,50.2,23.6,30.17,North,0,6.0,9.0,35,0.00,,,0.01,WeatherCatV1.11B39,2013-04-20 14:41:00,
2013-04-20 10:46:00,50.2,23.6,30.18,NNE,27,0.0,3.0,35,0.00,,,0.01,WeatherCatV1.11B39,2013-04-20 14:46:00,
2013-04-20 10:51:00,50.2,24.9,30.18,North,359,0.0,3.0,37,0.00,,,0.01,WeatherCatV1.11B39,2013-04-20 14:51:00,
2013-04-20 10:56:00,51.6,24.9,30.18,NE,40,11.0,11.0,35,0.00,,,0.01,WeatherCatV1.11B39,2013-04-20 14:56:00,
2013-04-20 11:01:00,51.6,28.7,30.17,NNE,18,0.0,6.0,41,0.00,,,0.01,WeatherCatV1.11B39,2013-04-20 15:01:00,
2013-04-20 11:06:00,51.9,25.8,30.17,NW,313,0.0,12.0,36,0.00,,,0.01,WeatherCatV1.11B39,2013-04-20 15:06:00,
2013-04-20 11:11:00,51.9,25.8,30.17,NNE,14,3.0,6.0,36,0.00,,,0.01,WeatherCatV1.11B39,2013-04-20 15:11:00,
2013-04-20 11:16:00,53.6,24.5,30.18,North,359,3.0,7.0,32,0.00,,,0.01,WeatherCatV1.11B39,2013-04-20 15:16:00,
2013-04-20 11:21:00,53.6,24.5,30.18,North,11,10.0,10.0,32,0.00,,,0.01,WeatherCatV1.11B39,2013-04-20 15:21:00,
2013-04-20 11:26:00,53.6,23.7,30.18,WNW,299,2.0,6.0,31,0.00,,,0.01,WeatherCatV1.11B39,2013-04-20 15:26:00,
2013-04-20 11:31:00,53.3,24.9,30.18,North,359,7.0,8.0,33,0.00,,,0.01,WeatherCatV1.11B39,2013-04-20 15:31:00,
2013-04-20 11:36:00,53.3,24.9,30.18,North,3,3.0,8.0,33,0.00,,,0.01,WeatherCatV1.11B39,2013-04-20 15:36:00,
2013-04-20 11:41:00,53.3,28.3,30.18,NNW,342,8.0,8.0,38,0.00,,,0.01,WeatherCatV1.11B39,2013-04-20 15:41:00,
2013-04-20 11:46:00,54.2,26.5,30.18,NW,326,0.0,8.0,34,0.00,,,0.01,WeatherCatV1.11B39,2013-04-20 15:46:00,
2013-04-20 11:51:00,54.4,24.4,30.18,North,0,2.0,6.0,31,0.00,,,0.01,WeatherCatV1.11B39,2013-04-20 15:51:00,
2013-04-20 11:56:00,54.5,25.3,30.18,WNW,296,1.0,8.0,32,0.00,,,0.01,WeatherCatV1.11B39,2013-04-20 15:56:00,
2013-04-20 12:01:00,55.1,26.5,30.18,NNW,336,3.0,8.0,33,0.00,,,0.01,WeatherCatV1.11B39,2013-04-20 16:01:00,
2013-04-20 12:06:00,54.5,25.3,30.18,NNE,18,5.0,8.0,32,0.00,,,0.01,WeatherCatV1.11B39,2013-04-20 16:06:00,
2013-04-20 12:11:00,54.5,24.5,30.18,NNE,18,4.0,9.0,31,0.00,,,0.01,WeatherCatV1.11B39,2013-04-20 16:11:00,
2013-04-20 12:16:00,54.8,27.0,30.18,NW,315,4.0,10.0,34,0.00,,,0.01,WeatherCatV1.11B39,2013-04-20 16:16:00,
2013-04-20 12:21:00,55.3,24.4,30.18,NNE,25,7.0,11.0,30,0.00,,,0.01,WeatherCatV1.11B39,2013-04-20 16:21:00,
2013-04-20 12:26:00,55.3,26.0,30.18,North,350,7.0,7.0,32,0.00,,,0.01,WeatherCatV1.11B39,2013-04-20 16:26:00,
2013-04-20 12:31:00,55.3,26.0,30.17,North,7,6.0,12.0,32,0.00,,,0.01,WeatherCatV1.11B39,2013-04-20 16:31:00,
2013-04-20 12:36:00,55.6,25.5,30.17,SW,233,0.0,7.0,31,0.00,,,0.01,WeatherCatV1.11B39,2013-04-20 16:36:00,
2013-04-20 12:41:00,55.7,27.8,30.17,North,349,0.0,2.0,34,0.00,,,0.01,WeatherCatV1.11B39,2013-04-20 16:41:00,
2013-04-20 12:46:00,56.3,26.1,30.17,North,357,0.0,8.0,31,0.00,,,0.01,WeatherCatV1.11B39,2013-04-20 16:46:00,
2013-04-20 12:51:00,56.5,26.2,30.17,North,349,2.0,7.0,31,0.00,,,0.01,WeatherCatV1.11B39,2013-04-20 16:51:00,
2013-04-20 12:56:00,56.3,28.3,30.17,NNW,329,3.0,17.0,34,0.00,,,0.01,WeatherCatV1.11B39,2013-04-20 16:56:00,
2013-04-20 13:01:00,56.7,26.4,30.17,NNE,27,0.0,1.0,31,0.00,,,0.01,WeatherCatV1.11B39,2013-04-20 17:01:00,
2013-04-20 13:06:00,57.0,28.9,30.17,North,0,1.0,8.0,34,0.00,,,0.01,WeatherCatV1.11B39,2013-04-20 17:06:00,
2013-04-20 13:11:00,57.3,26.1,30.17,North,0,0.0,0.0,30,0.00,,,0.01,WeatherCatV1.11B39,2013-04-20 17:11:00,
2013-04-20 13:16:00,58.1,27.6,30.16,WSW,241,0.0,5.0,31,0.00,,,0.01,WeatherCatV1.11B39,2013-04-20 17:16:00,
2013-04-20 13:21:00,58.1,25.2,30.16,NNW,335,3.0,6.0,28,0.00,,,0.01,WeatherCatV1.11B39,2013-04-20 17:21:00,
2013-04-20 13:26:00,58.0,27.5,30.16,North,352,3.0,4.0,31,0.00,,,0.01,WeatherCatV1.11B39,2013-04-20 17:26:00,
2013-04-20 13:31:00,58.0,24.2,30.15,North,0,1.0,1.0,27,0.00,,,0.01,WeatherCatV1.11B39,2013-04-20 17:31:00,
2013-04-20 13:36:00,58.0,24.2,30.15,North,0,2.0,11.0,27,0.00,,,0.01,WeatherCatV1.11B39,2013-04-20 17:36:00,
2013-04-20 13:42:00,58.0,25.9,30.15,North,4,2.0,9.0,29,0.00,,,0.01,WeatherCatV1.11B39,2013-04-20 17:42:00,
2013-04-20 13:47:00,58.6,24.7,30.15,North,359,6.0,6.0,27,0.00,,,0.01,WeatherCatV1.11B39,2013-04-20 17:47:00,
2013-04-20 13:51:00,58.6,25.6,30.15,West,278,3.0,7.0,28,0.00,,,0.01,WeatherCatV1.11B39,2013-04-20 17:51:00,
2013-04-20 13:56:00,58.6,25.6,30.15,NW,304,0.0,3.0,28,0.00,,,0.01,WeatherCatV1.11B39,2013-04-20 17:56:00,
2013-04-20 14:01:00,59.0,24.2,30.15,ESE,103,1.0,3.0,26,0.00,,,0.01,WeatherCatV1.11B39,2013-04-20 18:01:00,
2013-04-20 14:06:00,59.0,25.1,30.15,NE,42,0.0,0.0,27,0.00,,,0.01,WeatherCatV1.11B39,2013-04-20 18:06:00,
2013-04-20 14:11:00,59.0,25.1,30.15,NW,313,0.0,5.0,27,0.00,,,0.01,WeatherCatV1.11B39,2013-04-20 18:11:00,
2013-04-20 14:16:00,59.6,24.7,30.14,NNE,21,5.0,12.0,26,0.00,,,0.01,WeatherCatV1.11B39,2013-04-20 18:16:00,
2013-04-20 14:21:00,59.2,25.2,30.14,NNE,18,6.0,6.0,27,0.00,,,0.01,WeatherCatV1.11B39,2013-04-20 18:21:00,
2013-04-20 14:26:00,59.3,25.3,30.14,North,359,1.0,10.0,27,0.00,,,0.01,WeatherCatV1.11B39,2013-04-20 18:26:00,
2013-04-20 14:31:00,59.3,24.4,30.14,North,350,10.0,10.0,26,0.00,,,0.01,WeatherCatV1.11B39,2013-04-20 18:31:00,
2013-04-20 14:36:00,60.5,24.5,30.14,NNW,340,6.0,6.0,25,0.00,,,0.01,WeatherCatV1.11B39,2013-04-20 18:36:00,
2013-04-20 14:41:00,60.5,24.5,30.14,NNW,333,0.0,0.0,25,0.00,,,0.01,WeatherCatV1.11B39,2013-04-20 18:41:00,
2013-04-20 14:46:00,60.5,25.4,30.14,North,3,0.0,8.0,26,0.00,,,0.01,WeatherCatV1.11B39,2013-04-20 18:46:00,
2013-04-20 14:51:00,61.2,26.0,30.14,SE,136,2.0,2.0,26,0.00,,,0.01,WeatherCatV1.11B39,2013-04-20 18:51:00,
2013-04-20 14:56:00,61.5,26.3,30.14,NNW,340,7.0,14.0,26,0.00,,,0.01,WeatherCatV1.11B39,2013-04-20 18:56:00,
2013-04-20 15:01:00,61.5,26.3,30.13,West,267,3.0,10.0,26,0.00,,,0.01,WeatherCatV1.11B39,2013-04-20 19:01:00,
2013-04-20 15:06:00,61.5,24.4,30.13,North,359,8.0,12.0,24,0.00,,,0.01,WeatherCatV1.11B39,2013-04-20 19:06:00,
2013-04-20 15:11:00,61.5,26.3,30.13,North,359,0.0,3.0,26,0.00,,,0.01,WeatherCatV1.11B39,2013-04-20 19:11:00,
2013-04-20 15:16:00,61.5,26.3,30.13,NNW,344,2.0,6.0,26,0.00,,,0.01,WeatherCatV1.11B39,2013-04-20 19:16:00,
2013-04-20 15:21:00,60.9,21.8,30.13,NNE,30,9.0,18.0,22,0.00,,,0.01,WeatherCatV1.11B39,2013-04-20 19:21:00,
2013-04-20 15:26:00,60.9,21.8,30.13,NNE,17,7.0,7.0,22,0.00,,,0.01,WeatherCatV1.11B39,2013-04-20 19:26:00,
2013-04-20 15:31:00,61.2,24.1,30.12,NNE,21,10.0,17.0,24,0.00,,,0.01,WeatherCatV1.11B39,2013-04-20 19:31:00,
2013-04-20 15:36:00,61.3,24.2,30.12,North,0,8.0,13.0,24,0.00,,,0.01,WeatherCatV1.11B39,2013-04-20 19:36:00,
2013-04-20 15:41:00,61.3,22.1,30.12,North,357,0.0,0.0,22,0.00,,,0.01,WeatherCatV1.11B39,2013-04-20 19:41:00,
2013-04-20 15:46:00,61.8,22.6,30.12,NNE,24,11.0,11.0,22,0.00,,,0.01,WeatherCatV1.11B39,2013-04-20 19:46:00,
2013-04-20 15:51:00,62.3,25.1,30.12,NW,304,0.0,1.0,24,0.00,,,0.01,WeatherCatV1.11B39,2013-04-20 19:51:00,
2013-04-20 15:56:00,62.4,26.1,30.12,North,0,3.0,8.0,25,0.00,,,0.01,WeatherCatV1.11B39,2013-04-20 19:56:00,
2013-04-20 16:01:00,62.6,27.2,30.12,SW,219,3.0,4.0,26,0.00,,,0.01,WeatherCatV1.11B39,2013-04-20 20:01:00,
2013-04-20 16:06:00,63.4,25.0,30.12,SW,219,0.0,0.0,23,0.00,,,0.01,WeatherCatV1.11B39,2013-04-20 20:06:00,
2013-04-20 16:11:00,63.1,23.6,30.12,North,353,8.0,12.0,22,0.00,,,0.01,WeatherCatV1.11B39,2013-04-20 20:11:00,
2013-04-20 16:16:00,62.9,23.5,30.12,NW,318,0.0,0.0,22,0.00,,,0.01,WeatherCatV1.11B39,2013-04-20 20:16:00,
2013-04-20 16:21:00,62.6,24.3,30.12,NE,47,5.0,7.0,23,0.00,,,0.01,WeatherCatV1.11B39,2013-04-20 20:21:00,
2013-04-20 16:26:00,62.6,24.3,30.12,NNW,342,7.0,9.0,23,0.00,,,0.01,WeatherCatV1.11B39,2013-04-20 20:26:00,
2013-04-20 16:31:00,62.7,26.4,30.12,North,0,2.0,2.0,25,0.00,,,0.01,WeatherCatV1.11B39,2013-04-20 20:31:00,
2013-04-20 16:36:00,62.9,25.6,30.12,NNE,13,1.0,5.0,24,0.00,,,0.01,WeatherCatV1.11B39,2013-04-20 20:36:00,
2013-04-20 16:41:00,63.1,25.7,30.12,WSW,244,0.0,5.0,24,0.00,,,0.01,WeatherCatV1.11B39,2013-04-20 20:41:00,
2013-04-20 16:46:00,63.2,25.8,30.11,North,0,2.0,5.0,24,0.00,,,0.01,WeatherCatV1.11B39,2013-04-20 20:46:00,
2013-04-20 16:51:00,63.2,29.6,30.11,North,0,1.0,6.0,28,0.00,,,0.01,WeatherCatV1.11B39,2013-04-20 20:51:00,
2013-04-20 16:56:00,63.4,27.0,30.11,North,0,5.0,11.0,25,0.00,,,0.01,WeatherCatV1.11B39,2013-04-20 20:56:00,
2013-04-20 17:01:00,62.9,25.6,30.11,NNE,20,7.0,11.0,24,0.00,,,0.01,WeatherCatV1.11B39,2013-04-20 21:01:00,
2013-04-20 17:06:00,62.9,28.4,30.11,NNE,28,0.0,3.0,27,0.00,,,0.01,WeatherCatV1.11B39,2013-04-20 21:06:00,
2013-04-20 17:11:00,63.4,27.0,30.11,NNW,332,5.0,7.0,25,0.00,,,0.01,WeatherCatV1.11B39,2013-04-20 21:11:00,
2013-04-20 17:16:00,63.4,23.9,30.11,North,0,3.0,13.0,22,0.00,,,0.01,WeatherCatV1.11B39,2013-04-20 21:16:00,
2013-04-20 17:21:00,63.2,23.7,30.11,North,349,3.0,7.0,22,0.00,,,0.01,WeatherCatV1.11B39,2013-04-20 21:21:00,
2013-04-20 17:26:00,63.1,22.5,30.11,North,8,5.0,6.0,21,0.00,,,0.01,WeatherCatV1.11B39,2013-04-20 21:26:00,
2013-04-20 17:31:00,63.1,23.6,30.11,North,357,0.0,8.0,22,0.00,,,0.01,WeatherCatV1.11B39,2013-04-20 21:31:00,
2013-04-20 17:36:00,63.2,24.8,30.11,North,0,10.0,11.0,23,0.00,,,0.01,WeatherCatV1.11B39,2013-04-20 21:36:00,
2013-04-20 17:41:00,63.1,24.7,30.11,WNW,287,1.0,3.0,23,0.00,,,0.01,WeatherCatV1.11B39,2013-04-20 21:41:00,
2013-04-20 17:46:00,63.1,23.6,30.12,WNW,302,2.0,5.0,22,0.00,,,0.01,WeatherCatV1.11B39,2013-04-20 21:46:00,
2013-04-20 17:51:00,62.9,24.5,30.12,NNW,343,8.0,13.0,23,0.00,,,0.01,WeatherCatV1.11B39,2013-04-20 21:51:00,
2013-04-20 17:56:00,62.7,26.4,30.12,WSW,253,0.0,3.0,25,0.00,,,0.01,WeatherCatV1.11B39,2013-04-20 21:56:00,
2013-04-20 18:01:00,62.7,26.4,30.12,North,11,0.0,7.0,25,0.00,,,0.01,WeatherCatV1.11B39,2013-04-20 22:01:00,
2013-04-20 18:06:00,62.7,27.3,30.12,North,350,6.0,8.0,26,0.00,,,0.01,WeatherCatV1.11B39,2013-04-20 22:06:00,
2013-04-20 18:11:00,62.9,26.5,30.12,NNE,14,0.0,0.0,25,0.00,,,0.01,WeatherCatV1.11B39,2013-04-20 22:11:00,
2013-04-20 18:16:00,62.9,24.5,30.12,North,356,2.0,11.0,23,0.00,,,0.01,WeatherCatV1.11B39,2013-04-20 22:16:00,
2013-04-20 18:21:00,62.7,29.1,30.12,North,357,0.0,1.0,28,0.00,,,0.01,WeatherCatV1.11B39,2013-04-20 22:21:00,
2013-04-20 18:26:00,62.7,28.2,30.12,North,359,0.0,0.0,27,0.00,,,0.01,WeatherCatV1.11B39,2013-04-20 22:26:00,
2013-04-20 18:31:00,62.7,29.1,30.12,NNW,336,1.0,1.0,28,0.00,,,0.01,WeatherCatV1.11B39,2013-04-20 22:31:00,
2013-04-20 18:36:00,62.6,27.2,30.12,North,0,0.0,10.0,26,0.00,,,0.01,WeatherCatV1.11B39,2013-04-20 22:36:00,
2013-04-20 18:41:00,62.4,27.1,30.12,North,353,0.0,4.0,26,0.00,,,0.01,WeatherCatV1.11B39,2013-04-20 22:41:00,
2013-04-20 18:46:00,62.3,27.9,30.12,North,1,0.0,4.0,27,0.00,,,0.01,WeatherCatV1.11B39,2013-04-20 22:46:00,
2013-04-20 18:51:00,62.1,28.6,30.12,North,359,1.0,1.0,28,0.00,,,0.01,WeatherCatV1.11B39,2013-04-20 22:51:00,
2013-04-20 18:56:00,62.0,27.6,30.12,North,0,4.0,7.0,27,0.00,,,0.01,WeatherCatV1.11B39,2013-04-20 22:56:00,
2013-04-20 19:01:00,62.0,26.7,30.12,West,272,1.0,6.0,26,0.00,,,0.01,WeatherCatV1.11B39,2013-04-20 23:01:00,
2013-04-20 19:06:00,61.8,29.2,30.12,North,0,5.0,6.0,29,0.00,,,0.01,WeatherCatV1.11B39,2013-04-20 23:06:00,
2013-04-20 19:11:00,61.6,28.2,30.12,NNW,328,0.0,7.0,28,0.00,,,0.01,WeatherCatV1.11B39,2013-04-20 23:11:00,
2013-04-20 19:16:00,61.5,27.2,30.12,NNW,329,0.0,4.0,27,0.00,,,0.01,WeatherCatV1.11B39,2013-04-20 23:16:00,
2013-04-20 19:21:00,61.3,27.9,30.12,NW,325,0.0,0.0,28,0.00,,,0.01,WeatherCatV1.11B39,2013-04-20 23:21:00,
2013-04-20 19:26:00,61.2,27.0,30.12,WNW,298,1.0,3.0,27,0.00,,,0.01,WeatherCatV1.11B39,2013-04-20 23:26:00,
2013-04-20 19:31:00,60.9,27.6,30.13,NNE,13,0.0,7.0,28,0.00,,,0.01,WeatherCatV1.11B39,2013-04-20 23:31:00,
2013-04-20 19:36:00,60.7,31.4,30.13,North,0,0.0,0.0,33,0.00,,,0.01,WeatherCatV1.11B39,2013-04-20 23:36:00,
2013-04-20 19:41:00,60.4,29.6,30.13,North,0,0.0,0.0,31,0.00,,,0.01,WeatherCatV1.11B39,2013-04-20 23:41:00,
2013-04-20 19:46:00,60.1,30.1,30.13,North,0,0.0,0.0,32,0.00,,,0.01,WeatherCatV1.11B39,2013-04-20 23:46:00,
2013-04-20 19:51:00,59.6,34.0,30.13,North,0,0.0,0.0,38,0.00,,,0.01,WeatherCatV1.11B39,2013-04-20 23:51:00,
2013-04-20 19:56:00,59.3,30.9,30.13,North,0,0.0,0.0,34,0.00,,,0.01,WeatherCatV1.11B39,2013-04-20 23:56:00,
2013-04-20 20:01:00,58.9,28.3,30.14,North,0,0.0,0.0,31,0.00,,,0.01,WeatherCatV1.11B39,2013-04-21 00:01:00,
2013-04-20 20:06:00,58.6,31.0,30.14,North,0,0.0,0.0,35,0.00,,,0.01,WeatherCatV1.11B39,2013-04-21 00:06:00,
2013-04-20 20:11:00,58.3,30.1,30.14,North,0,0.0,0.0,34,0.00,,,0.01,WeatherCatV1.11B39,2013-04-21 00:11:00,
2013-04-20 20:16:00,57.8,29.6,30.14,North,0,0.0,0.0,34,0.00,,,0.01,WeatherCatV1.11B39,2013-04-21 00:16:00,
2013-04-20 20:21:00,57.3,31.9,30.14,North,0,0.0,0.0,38,0.00,,,0.01,WeatherCatV1.11B39,2013-04-21 00:21:00,
2013-04-20 20:26:00,56.9,32.8,30.14,North,0,0.0,0.0,40,0.00,,,0.01,WeatherCatV1.11B39,2013-04-21 00:26:00,
2013-04-20 20:31:00,56.3,35.8,30.15,North,0,0.0,0.0,46,0.00,,,0.01,WeatherCatV1.11B39,2013-04-21 00:31:00,
2013-04-20 20:36:00,55.9,34.9,30.15,North,0,0.0,0.0,45,0.00,,,0.01,WeatherCatV1.11B39,2013-04-21 00:36:00,
2013-04-20 20:41:00,55.3,34.9,30.15,North,0,0.0,0.0,46,0.00,,,0.01,WeatherCatV1.11B39,2013-04-21 00:41:00,
2013-04-20 20:46:00,54.8,34.4,30.16,North,0,0.0,0.0,46,0.00,,,0.01,WeatherCatV1.11B39,2013-04-21 00:46:00,
2013-04-20 20:51:00,54.4,36.2,30.16,North,0,0.0,0.0,50,0.00,,,0.01,WeatherCatV1.11B39,2013-04-21 00:51:00,
2013-04-20 20:56:00,54.1,36.9,30.16,North,0,0.0,0.0,52,0.00,,,0.01,WeatherCatV1.11B39,2013-04-21 00:56:00,
2013-04-20 21:01:00,53.8,36.1,30.17,North,0,0.0,0.0,51,0.00,,,0.01,WeatherCatV1.11B39,2013-04-21 01:01:00,
2013-04-20 21:06:00,53.5,33.2,30.17,North,0,0.0,0.0,46,0.00,,,0.01,WeatherCatV1.11B39,2013-04-21 01:06:00,
2013-04-20 21:11:00,53.3,33.1,30.17,North,0,0.0,0.0,46,0.00,,,0.01,WeatherCatV1.11B39,2013-04-21 01:11:00,
2013-04-20 21:16:00,53.3,34.6,30.18,North,0,0.0,0.0,49,0.00,,,0.01,WeatherCatV1.11B39,2013-04-21 01:16:00,
2013-04-20 21:21:00,53.3,34.1,30.18,North,0,0.0,0.0,48,0.00,,,0.01,WeatherCatV1.11B39,2013-04-21 01:21:00,
2013-04-20 21:26:00,53.3,34.1,30.18,North,0,0.0,0.0,48,0.00,,,0.01,WeatherCatV1.11B39,2013-04-21 01:26:00,
2013-04-20 21:31:00,53.2,34.5,30.18,North,0,0.0,0.0,49,0.00,,,0.01,WeatherCatV1.11B39,2013-04-21 01:31:00,
2013-04-20 21:36:00,53.2,34.5,30.18,NW,319,0.0,2.0,49,0.00,,,0.01,WeatherCatV1.11B39,2013-04-21 01:36:00,
2013-04-20 21:41:00,53.2,34.0,30.18,NW,319,0.0,0.0,48,0.00,,,0.01,WeatherCatV1.11B39,2013-04-21 01:41:00,
2013-04-20 21:46:00,53.2,33.5,30.19,NW,319,0.0,0.0,47,0.00,,,0.01,WeatherCatV1.11B39,2013-04-21 01:46:00,
2013-04-20 21:51:00,53.1,31.2,30.19,NW,319,0.0,0.0,43,0.00,,,0.01,WeatherCatV1.11B39,2013-04-21 01:51:00,
2013-04-20 21:56:00,52.9,31.0,30.19,NW,319,0.0,0.0,43,0.00,,,0.01,WeatherCatV1.11B39,2013-04-21 01:56:00,
2013-04-20 22:01:00,52.8,30.9,30.20,NW,319,0.0,0.0,43,0.00,,,0.01,WeatherCatV1.11B39,2013-04-21 02:01:00,
2013-04-20 22:06:00,52.6,32.4,30.20,NW,319,0.0,0.0,46,0.00,,,0.01,WeatherCatV1.11B39,2013-04-21 02:06:00,
2013-04-20 22:11:00,52.5,33.4,30.20,NW,319,0.0,0.0,48,0.00,,,0.01,WeatherCatV1.11B39,2013-04-21 02:11:00,
2013-04-20 22:16:00,52.3,31.6,30.20,NW,319,0.0,0.0,45,0.00,,,0.01,WeatherCatV1.11B39,2013-04-21 02:16:00,
2013-04-20 22:21:00,52.2,30.4,30.20,NW,319,0.0,0.0,43,0.00,,,0.01,WeatherCatV1.11B39,2013-04-21 02:21:00,
2013-04-20 22:26:00,52.0,30.2,30.20,NW,319,0.0,0.0,43,0.00,,,0.01,WeatherCatV1.11B39,2013-04-21 02:26:00,
2013-04-20 22:31:00,52.0,31.3,30.20,NW,319,0.0,0.0,45,0.00,,,0.01,WeatherCatV1.11B39,2013-04-21 02:31:00,
2013-04-20 22:36:00,51.9,30.7,30.20,NW,319,0.0,0.0,44,0.00,,,0.01,WeatherCatV1.11B39,2013-04-21 02:36:00,
2013-04-20 22:41:00,51.7,31.6,30.20,NW,319,0.0,0.0,46,0.00,,,0.01,WeatherCatV1.11B39,2013-04-21 02:41:00,
2013-04-20 22:46:00,51.6,32.6,30.20,NW,319,0.0,0.0,48,0.00,,,0.01,WeatherCatV1.11B39,2013-04-21 02:46:00,
2013-04-20 22:51:00,51.3,32.3,30.20,NW,319,0.0,0.0,48,0.00,,,0.01,WeatherCatV1.11B39,2013-04-21 02:51:00,
2013-04-20 22:56:00,51.1,32.1,30.20,NW,319,0.0,0.0,48,0.00,,,0.01,WeatherCatV1.11B39,2013-04-21 02:56:00,
2013-04-20 23:01:00,50.8,31.8,30.21,NW,319,0.0,0.0,48,0.00,,,0.01,WeatherCatV1.11B39,2013-04-21 03:01:00,
2013-04-20 23:06:00,50.5,33.5,30.21,NW,319,0.0,0.0,52,0.00,,,0.01,WeatherCatV1.11B39,2013-04-21 03:06:00,
2013-04-20 23:11:00,50.4,32.5,30.21,NW,319,0.0,0.0,50,0.00,,,0.01,WeatherCatV1.11B39,2013-04-21 03:11:00,
2013-04-20 23:16:00,50.1,33.6,30.21,NW,319,0.0,0.0,53,0.00,,,0.01,WeatherCatV1.11B39,2013-04-21 03:16:00,
2013-04-20 23:21:00,49.8,31.9,30.21,NW,319,0.0,0.0,50,0.00,,,0.01,WeatherCatV1.11B39,2013-04-21 03:21:00,
2013-04-20 23:26:00,49.6,33.6,30.21,NW,319,0.0,0.0,54,0.00,,,0.01,WeatherCatV1.11B39,2013-04-21 03:26:00,
2013-04-20 23:31:00,49.5,33.1,30.22,NW,319,0.0,0.0,53,0.00,,,0.01,WeatherCatV1.11B39,2013-04-21 03:31:00,
2013-04-20 23:36:00,49.4,33.5,30.22,NW,319,0.0,0.0,54,0.00,,,0.01,WeatherCatV1.11B39,2013-04-21 03:36:00,
2013-04-20 23:41:00,49.2,33.3,30.22,NW,319,0.0,0.0,54,0.00,,,0.01,WeatherCatV1.11B39,2013-04-21 03:41:00,
2013-04-20 23:46:00,49.1,33.2,30.22,NW,319,0.0,0.0,54,0.00,,,0.01,WeatherCatV1.11B39,2013-04-21 03:46:00,
2013-04-20 23:51:00,48.8,32.9,30.22,NW,319,0.0,0.0,54,0.00,,,0.01,WeatherCatV1.11B39,2013-04-21 03:51:00,
2013-04-20 23:56:00,48.6,31.8,30.22,NW,319,0.0,0.0,52,0.00,,,0.01,WeatherCatV1.11B39,2013-04-21 03:56:00,